Terminal Aerodrome Forecast
Issued by NWS

Home | Current Version | Previous Version | Text Only | Print | Product List | Glossary On
Versions: 1 2 3 4 5 6 7 8 9 10 11 12 13 14 15 16 17 18 19
917
FTUS43 KSGF 151052 AAA
TAFJLN
TAF AMD
KJLN 151052Z 1511/1606 28008KT 1SM -SN BR OVC010
      TEMPO 1511/1515 1/2SM SN OVC007
     FM151500 35012G19KT 3SM -SN OVC015
     FM151800 34015G20KT P6SM OVC025=

USA.gov is the U.S. government's official web portal to all federal, state and local government web resources and services.